Koushinmaru No.5 — JL6695 — position and weather

sailwx.info

Track history (hours):
 
Tides and Currents Weather Stations Pressure Air Temp Water Temp Dewpoint Dewpoint Depression Visibility Wind Speed Wind Dir Waves Ship Positions

Koushinmaru No.5

Last reported at 2016-Sep-27 10:33 UTC. Time now 2016-Sep-28 17:11 UTC.
Position N 34°32' E 135°02'.

Length 75 m; draft 4.9 m.

Type: Cargo ship. MMSI: 431301703.

Date/timePositionNaut miles runAvg speedWind from/ knotsBaromVisibWave heightAir tempDewpointWater temp
2016-Sep-27 10:33N 34°32' E 135°02'  
2016-Sep-24 03:33N 34°32' E 135°23'2 1.9
2016-Sep-24 02:32N 34°31' E 135°24'0 0.1
2016-Sep-24 01:33N 34°31' E 135°24'0 0.0
2016-Sep-24 00:33N 34°31' E 135°24'0 0.0
2016-Sep-23 19:33N 34°31' E 135°24'0 0.0
2016-Sep-23 17:33N 34°31' E 135°24'0 0.0
2016-Sep-23 16:33N 34°31' E 135°24'0 0.0
2016-Sep-23 15:33N 34°31' E 135°24'0 0.0
2016-Sep-23 13:31N 34°31' E 135°24'0 0.0
2016-Sep-23 09:33N 34°31' E 135°24'5 1.6
2016-Sep-23 06:33N 34°35' E 135°26'1 0.5
2016-Sep-23 04:33N 34°35' E 135°27'0 0.0
2016-Sep-23 02:25N 34°35' E 135°27'4 5.2
2016-Sep-23 01:33N 34°39' E 135°26'1 1.5
2016-Sep-23 00:33N 34°40' E 135°27'0 0.0
2016-Sep-22 00:33N 34°40' E 135°27'5 5.1
2016-Sep-21 23:33N 34°37' E 135°22'0 0.0
2016-Sep-21 22:33N 34°37' E 135°22'16 5.5
2016-Sep-21 19:33N 34°25' E 135°08'  
2016-Sep-18 10:33N 35°18' E 139°44'8 7.7
2016-Sep-18 09:33N 35°25' E 139°47'4 0.2
2016-Sep-17 13:33N 35°22' E 139°49'0 0.0
2016-Sep-17 12:33N 35°22' E 139°49'0 0.0
2016-Sep-17 10:33N 35°22' E 139°49'  
Track history (hours):
 
Tides and Currents Weather Stations Pressure Air Temp Water Temp Dewpoint Dewpoint Depression Visibility Wind Speed Wind Dir Waves Ship Positions

Koushinmaru No.5

Last reported at 2016-Sep-27 10:33 UTC. Time now 2016-Sep-28 17:11 UTC.
Position N 34°32' E 135°02'.

Length 75 m; draft 4.9 m.

Type: Cargo ship. MMSI: 431301703.

Date/timePositionNaut miles runAvg speedWind from/ knotsBaromVisibWave heightAir tempDewpointWater temp
2016-Sep-27 10:33N 34°32' E 135°02'  
2016-Sep-24 03:33N 34°32' E 135°23'2 1.9
2016-Sep-24 02:32N 34°31' E 135°24'0 0.1
2016-Sep-24 01:33N 34°31' E 135°24'0 0.0
2016-Sep-24 00:33N 34°31' E 135°24'0 0.0
2016-Sep-23 19:33N 34°31' E 135°24'0 0.0
2016-Sep-23 17:33N 34°31' E 135°24'0 0.0
2016-Sep-23 16:33N 34°31' E 135°24'0 0.0
2016-Sep-23 15:33N 34°31' E 135°24'0 0.0
2016-Sep-23 13:31N 34°31' E 135°24'0 0.0
2016-Sep-23 09:33N 34°31' E 135°24'5 1.6
2016-Sep-23 06:33N 34°35' E 135°26'1 0.5
2016-Sep-23 04:33N 34°35' E 135°27'0 0.0
2016-Sep-23 02:25N 34°35' E 135°27'4 5.2
2016-Sep-23 01:33N 34°39' E 135°26'1 1.5
2016-Sep-23 00:33N 34°40' E 135°27'0 0.0
2016-Sep-22 00:33N 34°40' E 135°27'5 5.1
2016-Sep-21 23:33N 34°37' E 135°22'0 0.0
2016-Sep-21 22:33N 34°37' E 135°22'16 5.5
2016-Sep-21 19:33N 34°25' E 135°08'  
2016-Sep-18 10:33N 35°18' E 139°44'8 7.7
2016-Sep-18 09:33N 35°25' E 139°47'4 0.2
2016-Sep-17 13:33N 35°22' E 139°49'0 0.0
2016-Sep-17 12:33N 35°22' E 139°49'0 0.0
2016-Sep-17 10:33N 35°22' E 139°49'  

Dump ship's entire track history